sensor_id;sensor_type;location;lat;lon;timestamp;P1;durP1;ratioP1;P2;durP2;ratioP2
64186;SDS011;50491;39.484;-8.540;2023-03-21T00:00:52;5.03;;;2.67;;
64186;SDS011;50491;39.484;-8.540;2023-03-21T00:02:53;3.40;;;3.10;;
64186;SDS011;50491;39.484;-8.540;2023-03-21T00:04:54;3.70;;;3.08;;
64186;SDS011;50491;39.484;-8.540;2023-03-21T00:06:55;5.40;;;3.60;;
64186;SDS011;50491;39.484;-8.540;2023-03-21T00:09:14;3.65;;;3.35;;
64186;SDS011;50491;39.484;-8.540;2023-03-21T00:11:15;5.85;;;3.47;;
64186;SDS011;50491;39.484;-8.540;2023-03-21T00:13:16;2.88;;;2.67;;
64186;SDS011;50491;39.484;-8.540;2023-03-21T00:15:18;7.05;;;3.78;;
64186;SDS011;50491;39.484;-8.540;2023-03-21T00:17:18;4.43;;;3.25;;
64186;SDS011;50491;39.484;-8.540;2023-03-21T00:19:21;4.50;;;2.83;;
64186;SDS011;50491;39.484;-8.540;2023-03-21T00:21:24;4.25;;;2.72;;
64186;SDS011;50491;39.484;-8.540;2023-03-21T00:23:33;5.68;;;3.10;;
64186;SDS011;50491;39.484;-8.540;2023-03-21T00:25:35;4.07;;;3.28;;
64186;SDS011;50491;39.484;-8.540;2023-03-21T00:27:36;5.45;;;2.95;;
64186;SDS011;50491;39.484;-8.540;2023-03-21T00:29:36;10.45;;;3.40;;
64186;SDS011;50491;39.484;-8.540;2023-03-21T00:31:37;3.38;;;2.92;;
64186;SDS011;50491;39.484;-8.540;2023-03-21T00:33:38;3.80;;;3.45;;
64186;SDS011;50491;39.484;-8.540;2023-03-21T00:35:39;4.03;;;3.10;;
64186;SDS011;50491;39.484;-8.540;2023-03-21T00:37:47;4.63;;;3.90;;
64186;SDS011;50491;39.484;-8.540;2023-03-21T00:40:06;7.30;;;4.10;;
64186;SDS011;50491;39.484;-8.540;2023-03-21T00:42:35;4.40;;;3.17;;
64186;SDS011;50491;39.484;-8.540;2023-03-21T00:44:41;3.85;;;2.92;;
64186;SDS011;50491;39.484;-8.540;2023-03-21T00:46:42;4.20;;;3.50;;
64186;SDS011;50491;39.484;-8.540;2023-03-21T00:48:43;3.72;;;3.33;;
64186;SDS011;50491;39.484;-8.540;2023-03-21T00:50:44;6.68;;;3.47;;
64186;SDS011;50491;39.484;-8.540;2023-03-21T00:52:48;8.25;;;4.25;;
64186;SDS011;50491;39.484;-8.540;2023-03-21T00:59:47;6.55;;;3.47;;
64186;SDS011;50491;39.484;-8.540;2023-03-21T01:01:47;5.68;;;3.97;;
64186;SDS011;50491;39.484;-8.540;2023-03-21T01:04:07;3.90;;;3.45;;
64186;SDS011;50491;39.484;-8.540;2023-03-21T01:06:52;6.40;;;3.42;;
64186;SDS011;50491;39.484;-8.540;2023-03-21T01:09:13;4.43;;;3.55;;
64186;SDS011;50491;39.484;-8.540;2023-03-21T01:11:34;4.93;;;3.53;;
64186;SDS011;50491;39.484;-8.540;2023-03-21T01:13:34;6.47;;;3.50;;
64186;SDS011;50491;39.484;-8.540;2023-03-21T01:15:35;4.78;;;3.42;;
64186;SDS011;50491;39.484;-8.540;2023-03-21T01:17:37;3.40;;;3.10;;
64186;SDS011;50491;39.484;-8.540;2023-03-21T01:19:38;3.22;;;2.92;;
64186;SDS011;50491;39.484;-8.540;2023-03-21T01:21:39;7.13;;;3.05;;
64186;SDS011;50491;39.484;-8.540;2023-03-21T01:23:41;3.35;;;2.65;;
64186;SDS011;50491;39.484;-8.540;2023-03-21T01:26:00;3.85;;;2.90;;
64186;SDS011;50491;39.484;-8.540;2023-03-21T01:28:07;3.08;;;2.75;;
64186;SDS011;50491;39.484;-8.540;2023-03-21T01:30:08;6.00;;;3.15;;
64186;SDS011;50491;39.484;-8.540;2023-03-21T01:32:09;4.65;;;3.10;;
64186;SDS011;50491;39.484;-8.540;2023-03-21T01:34:10;3.67;;;2.90;;
64186;SDS011;50491;39.484;-8.540;2023-03-21T01:36:15;4.30;;;3.08;;
64186;SDS011;50491;39.484;-8.540;2023-03-21T01:38:18;2.88;;;2.63;;
64186;SDS011;50491;39.484;-8.540;2023-03-21T01:40:23;4.57;;;3.55;;
64186;SDS011;50491;39.484;-8.540;2023-03-21T01:42:31;3.45;;;2.60;;
64186;SDS011;50491;39.484;-8.540;2023-03-21T01:44:50;4.30;;;2.60;;
64186;SDS011;50491;39.484;-8.540;2023-03-21T01:46:52;2.97;;;2.72;;
64186;SDS011;50491;39.484;-8.540;2023-03-21T01:51:39;3.22;;;2.28;;
64186;SDS011;50491;39.484;-8.540;2023-03-21T01:53:42;3.22;;;2.10;;
64186;SDS011;50491;39.484;-8.540;2023-03-21T01:55:46;6.05;;;2.70;;
64186;SDS011;50491;39.484;-8.540;2023-03-21T01:58:07;2.00;;;1.90;;
64186;SDS011;50491;39.484;-8.540;2023-03-21T02:00:33;2.53;;;2.35;;
64186;SDS011;50491;39.484;-8.540;2023-03-21T02:02:49;3.80;;;2.33;;
64186;SDS011;50491;39.484;-8.540;2023-03-21T02:05:13;4.25;;;2.40;;
64186;SDS011;50491;39.484;-8.540;2023-03-21T02:07:14;4.22;;;2.50;;
64186;SDS011;50491;39.484;-8.540;2023-03-21T02:09:24;3.28;;;2.97;;
64186;SDS011;50491;39.484;-8.540;2023-03-21T02:11:27;3.70;;;2.35;;
64186;SDS011;50491;39.484;-8.540;2023-03-21T02:13:29;3.90;;;3.10;;
64186;SDS011;50491;39.484;-8.540;2023-03-21T02:15:30;5.45;;;2.63;;
64186;SDS011;50491;39.484;-8.540;2023-03-21T02:23:11;2.47;;;2.28;;
64186;SDS011;50491;39.484;-8.540;2023-03-21T02:27:53;3.25;;;2.67;;
64186;SDS011;50491;39.484;-8.540;2023-03-21T02:30:10;3.58;;;2.78;;
64186;SDS011;50491;39.484;-8.540;2023-03-21T02:37:08;4.57;;;3.10;;
64186;SDS011;50491;39.484;-8.540;2023-03-21T02:39:15;4.05;;;2.47;;
64186;SDS011;50491;39.484;-8.540;2023-03-21T02:42:16;2.83;;;2.40;;
64186;SDS011;50491;39.484;-8.540;2023-03-21T02:44:16;2.25;;;2.10;;
64186;SDS011;50491;39.484;-8.540;2023-03-21T02:46:30;2.15;;;1.95;;
64186;SDS011;50491;39.484;-8.540;2023-03-21T02:48:45;3.83;;;2.50;;
64186;SDS011;50491;39.484;-8.540;2023-03-21T02:50:52;2.38;;;2.17;;
64186;SDS011;50491;39.484;-8.540;2023-03-21T02:52:54;2.60;;;2.40;;
64186;SDS011;50491;39.484;-8.540;2023-03-21T02:57:37;2.45;;;1.85;;
64186;SDS011;50491;39.484;-8.540;2023-03-21T02:59:39;2.28;;;2.08;;
64186;SDS011;50491;39.484;-8.540;2023-03-21T03:01:43;2.28;;;2.17;;
64186;SDS011;50491;39.484;-8.540;2023-03-21T03:03:44;2.30;;;2.10;;
64186;SDS011;50491;39.484;-8.540;2023-03-21T03:05:47;2.85;;;2.03;;
64186;SDS011;50491;39.484;-8.540;2023-03-21T03:12:33;2.17;;;2.08;;
64186;SDS011;50491;39.484;-8.540;2023-03-21T03:14:43;3.33;;;2.10;;
64186;SDS011;50491;39.484;-8.540;2023-03-21T03:16:57;2.47;;;1.90;;
64186;SDS011;50491;39.484;-8.540;2023-03-21T03:18:59;2.33;;;1.95;;
64186;SDS011;50491;39.484;-8.540;2023-03-21T03:21:07;1.98;;;1.80;;
64186;SDS011;50491;39.484;-8.540;2023-03-21T03:23:27;2.00;;;1.90;;
64186;SDS011;50491;39.484;-8.540;2023-03-21T03:25:46;2.63;;;2.10;;
64186;SDS011;50491;39.484;-8.540;2023-03-21T03:27:50;1.55;;;1.50;;
64186;SDS011;50491;39.484;-8.540;2023-03-21T03:29:53;2.50;;;2.03;;
64186;SDS011;50491;39.484;-8.540;2023-03-21T03:32:00;3.00;;;2.15;;
64186;SDS011;50491;39.484;-8.540;2023-03-21T03:34:08;2.75;;;1.40;;
64186;SDS011;50491;39.484;-8.540;2023-03-21T03:36:14;1.75;;;1.65;;
64186;SDS011;50491;39.484;-8.540;2023-03-21T03:38:34;3.15;;;1.67;;
64186;SDS011;50491;39.484;-8.540;2023-03-21T03:40:41;3.10;;;2.08;;
64186;SDS011;50491;39.484;-8.540;2023-03-21T03:42:59;1.88;;;1.67;;
64186;SDS011;50491;39.484;-8.540;2023-03-21T03:45:08;1.67;;;1.58;;
64186;SDS011;50491;39.484;-8.540;2023-03-21T03:47:33;1.90;;;1.80;;
64186;SDS011;50491;39.484;-8.540;2023-03-21T03:49:37;1.85;;;1.75;;
64186;SDS011;50491;39.484;-8.540;2023-03-21T03:51:47;2.38;;;1.90;;
64186;SDS011;50491;39.484;-8.540;2023-03-21T03:54:20;4.60;;;1.87;;
64186;SDS011;50491;39.484;-8.540;2023-03-21T03:56:24;2.10;;;2.00;;
64186;SDS011;50491;39.484;-8.540;2023-03-21T03:58:25;2.08;;;1.70;;
64186;SDS011;50491;39.484;-8.540;2023-03-21T04:08:53;2.67;;;2.30;;
64186;SDS011;50491;39.484;-8.540;2023-03-21T04:11:34;3.13;;;2.53;;
64186;SDS011;50491;39.484;-8.540;2023-03-21T04:13:35;3.33;;;2.53;;
64186;SDS011;50491;39.484;-8.540;2023-03-21T04:15:56;3.50;;;2.97;;
64186;SDS011;50491;39.484;-8.540;2023-03-21T04:23:13;3.08;;;2.78;;
64186;SDS011;50491;39.484;-8.540;2023-03-21T04:37:01;4.25;;;3.30;;
64186;SDS011;50491;39.484;-8.540;2023-03-21T04:39:11;4.38;;;2.90;;
64186;SDS011;50491;39.484;-8.540;2023-03-21T04:41:12;3.10;;;2.55;;
64186;SDS011;50491;39.484;-8.540;2023-03-21T04:43:31;3.47;;;2.88;;
64186;SDS011;50491;39.484;-8.540;2023-03-21T04:50:30;3.13;;;2.78;;
64186;SDS011;50491;39.484;-8.540;2023-03-21T04:57:50;6.68;;;3.30;;
64186;SDS011;50491;39.484;-8.540;2023-03-21T05:07:32;3.38;;;3.08;;
64186;SDS011;50491;39.484;-8.540;2023-03-21T05:09:33;5.90;;;3.78;;
64186;SDS011;50491;39.484;-8.540;2023-03-21T05:11:35;3.75;;;3.40;;
64186;SDS011;50491;39.484;-8.540;2023-03-21T05:13:55;3.55;;;3.25;;
64186;SDS011;50491;39.484;-8.540;2023-03-21T05:18:53;4.20;;;3.10;;
64186;SDS011;50491;39.484;-8.540;2023-03-21T05:26:28;4.97;;;3.50;;
64186;SDS011;50491;39.484;-8.540;2023-03-21T05:31:16;6.93;;;4.22;;
64186;SDS011;50491;39.484;-8.540;2023-03-21T05:33:43;5.57;;;3.97;;
64186;SDS011;50491;39.484;-8.540;2023-03-21T05:36:03;5.15;;;4.00;;
64186;SDS011;50491;39.484;-8.540;2023-03-21T05:38:06;5.88;;;4.10;;
64186;SDS011;50491;39.484;-8.540;2023-03-21T05:40:18;5.57;;;4.78;;
64186;SDS011;50491;39.484;-8.540;2023-03-21T05:42:20;5.00;;;4.40;;
64186;SDS011;50491;39.484;-8.540;2023-03-21T05:47:24;4.90;;;3.97;;
64186;SDS011;50491;39.484;-8.540;2023-03-21T05:49:27;4.10;;;3.67;;
64186;SDS011;50491;39.484;-8.540;2023-03-21T05:51:32;5.10;;;4.40;;
64186;SDS011;50491;39.484;-8.540;2023-03-21T05:53:32;3.92;;;3.53;;
64186;SDS011;50491;39.484;-8.540;2023-03-21T05:55:33;4.20;;;3.17;;
64186;SDS011;50491;39.484;-8.540;2023-03-21T05:57:34;7.05;;;4.35;;
64186;SDS011;50491;39.484;-8.540;2023-03-21T06:02:52;6.75;;;4.00;;
64186;SDS011;50491;39.484;-8.540;2023-03-21T06:05:08;8.02;;;4.57;;
64186;SDS011;50491;39.484;-8.540;2023-03-21T06:07:27;5.15;;;4.50;;
64186;SDS011;50491;39.484;-8.540;2023-03-21T06:09:29;6.15;;;3.97;;
64186;SDS011;50491;39.484;-8.540;2023-03-21T06:11:34;4.78;;;4.18;;
64186;SDS011;50491;39.484;-8.540;2023-03-21T06:13:54;5.10;;;4.35;;
64186;SDS011;50491;39.484;-8.540;2023-03-21T06:18:24;4.95;;;3.70;;
64186;SDS011;50491;39.484;-8.540;2023-03-21T06:20:45;4.35;;;3.95;;
64186;SDS011;50491;39.484;-8.540;2023-03-21T06:25:44;5.65;;;3.78;;
64186;SDS011;50491;39.484;-8.540;2023-03-21T06:28:04;5.10;;;3.67;;
64186;SDS011;50491;39.484;-8.540;2023-03-21T06:32:43;4.35;;;3.95;;
64186;SDS011;50491;39.484;-8.540;2023-03-21T06:34:49;4.78;;;3.42;;
64186;SDS011;50491;39.484;-8.540;2023-03-21T06:36:51;6.18;;;3.90;;
64186;SDS011;50491;39.484;-8.540;2023-03-21T06:38:54;4.10;;;3.55;;
64186;SDS011;50491;39.484;-8.540;2023-03-21T06:40:55;3.35;;;3.05;;
64186;SDS011;50491;39.484;-8.540;2023-03-21T06:42:58;6.28;;;3.97;;
64186;SDS011;50491;39.484;-8.540;2023-03-21T06:48:14;3.17;;;2.88;;
64186;SDS011;50491;39.484;-8.540;2023-03-21T06:55:55;3.03;;;2.67;;
64186;SDS011;50491;39.484;-8.540;2023-03-21T06:57:56;3.97;;;2.45;;
64186;SDS011;50491;39.484;-8.540;2023-03-21T07:00:16;3.60;;;2.38;;
64186;SDS011;50491;39.484;-8.540;2023-03-21T07:02:20;5.23;;;2.30;;
64186;SDS011;50491;39.484;-8.540;2023-03-21T07:04:47;3.20;;;2.20;;
64186;SDS011;50491;39.484;-8.540;2023-03-21T07:09:37;3.22;;;2.45;;
64186;SDS011;50491;39.484;-8.540;2023-03-21T07:11:57;2.38;;;2.20;;
64186;SDS011;50491;39.484;-8.540;2023-03-21T07:16:41;2.28;;;2.00;;
64186;SDS011;50491;39.484;-8.540;2023-03-21T07:19:16;2.05;;;1.85;;
64186;SDS011;50491;39.484;-8.540;2023-03-21T07:21:16;4.05;;;2.10;;
64186;SDS011;50491;39.484;-8.540;2023-03-21T07:33:50;3.17;;;2.08;;
64186;SDS011;50491;39.484;-8.540;2023-03-21T07:39:50;2.00;;;1.67;;
64186;SDS011;50491;39.484;-8.540;2023-03-21T07:41:51;1.90;;;1.80;;
64186;SDS011;50491;39.484;-8.540;2023-03-21T07:44:05;1.70;;;1.60;;
64186;SDS011;50491;39.484;-8.540;2023-03-21T07:48:44;1.60;;;1.50;;
64186;SDS011;50491;39.484;-8.540;2023-03-21T07:51:05;2.63;;;1.90;;
64186;SDS011;50491;39.484;-8.540;2023-03-21T07:53:25;1.45;;;1.35;;
64186;SDS011;50491;39.484;-8.540;2023-03-21T07:55:25;2.05;;;1.80;;
64186;SDS011;50491;39.484;-8.540;2023-03-21T07:57:26;3.20;;;2.08;;
64186;SDS011;50491;39.484;-8.540;2023-03-21T07:59:27;2.85;;;2.03;;
64186;SDS011;50491;39.484;-8.540;2023-03-21T08:01:46;2.40;;;2.13;;
64186;SDS011;50491;39.484;-8.540;2023-03-21T08:03:47;3.55;;;2.03;;
64186;SDS011;50491;39.484;-8.540;2023-03-21T08:08:44;2.03;;;1.92;;
64186;SDS011;50491;39.484;-8.540;2023-03-21T08:26:55;2.33;;;2.13;;
64186;SDS011;50491;39.484;-8.540;2023-03-21T08:28:57;1.92;;;1.83;;
64186;SDS011;50491;39.484;-8.540;2023-03-21T08:30:57;2.13;;;1.73;;
64186;SDS011;50491;39.484;-8.540;2023-03-21T08:33:00;1.88;;;1.75;;
64186;SDS011;50491;39.484;-8.540;2023-03-21T08:35:01;1.92;;;1.83;;
64186;SDS011;50491;39.484;-8.540;2023-03-21T08:37:05;3.20;;;1.90;;
64186;SDS011;50491;39.484;-8.540;2023-03-21T08:39:06;2.33;;;1.80;;
64186;SDS011;50491;39.484;-8.540;2023-03-21T08:41:25;2.08;;;1.88;;
64186;SDS011;50491;39.484;-8.540;2023-03-21T08:43:26;4.35;;;2.10;;
64186;SDS011;50491;39.484;-8.540;2023-03-21T08:45:27;3.28;;;2.50;;
64186;SDS011;50491;39.484;-8.540;2023-03-21T08:47:29;3.70;;;2.20;;
64186;SDS011;50491;39.484;-8.540;2023-03-21T08:49:29;4.47;;;2.17;;
64186;SDS011;50491;39.484;-8.540;2023-03-21T08:51:30;4.43;;;2.30;;
64186;SDS011;50491;39.484;-8.540;2023-03-21T08:53:32;3.60;;;1.90;;
64186;SDS011;50491;39.484;-8.540;2023-03-21T08:55:33;2.58;;;2.13;;
64186;SDS011;50491;39.484;-8.540;2023-03-21T08:57:53;2.80;;;2.50;;
64186;SDS011;50491;39.484;-8.540;2023-03-21T08:59:56;3.75;;;2.05;;
64186;SDS011;50491;39.484;-8.540;2023-03-21T09:01:57;3.20;;;1.77;;
64186;SDS011;50491;39.484;-8.540;2023-03-21T09:03:57;1.98;;;1.88;;
64186;SDS011;50491;39.484;-8.540;2023-03-21T09:05:58;4.20;;;2.20;;
64186;SDS011;50491;39.484;-8.540;2023-03-21T09:08:18;2.60;;;1.90;;
64186;SDS011;50491;39.484;-8.540;2023-03-21T09:10:24;4.50;;;2.33;;
64186;SDS011;50491;39.484;-8.540;2023-03-21T09:12:25;1.77;;;1.67;;
64186;SDS011;50491;39.484;-8.540;2023-03-21T09:14:26;1.85;;;1.75;;
64186;SDS011;50491;39.484;-8.540;2023-03-21T09:16:45;2.75;;;1.98;;
64186;SDS011;50491;39.484;-8.540;2023-03-21T09:19:11;1.88;;;1.50;;
64186;SDS011;50491;39.484;-8.540;2023-03-21T09:21:14;5.32;;;2.38;;
64186;SDS011;50491;39.484;-8.540;2023-03-21T09:23:19;2.05;;;1.80;;
64186;SDS011;50491;39.484;-8.540;2023-03-21T09:25:21;1.65;;;1.55;;
64186;SDS011;50491;39.484;-8.540;2023-03-21T09:27:23;5.15;;;1.55;;
64186;SDS011;50491;39.484;-8.540;2023-03-21T09:29:27;6.57;;;1.98;;
64186;SDS011;50491;39.484;-8.540;2023-03-21T09:31:35;1.60;;;1.50;;
64186;SDS011;50491;39.484;-8.540;2023-03-21T09:33:37;1.73;;;1.63;;
64186;SDS011;50491;39.484;-8.540;2023-03-21T09:35:42;3.85;;;1.58;;
64186;SDS011;50491;39.484;-8.540;2023-03-21T09:37:44;1.73;;;1.63;;
64186;SDS011;50491;39.484;-8.540;2023-03-21T09:39:54;2.95;;;1.75;;
64186;SDS011;50491;39.484;-8.540;2023-03-21T10:20:32;1.45;;;1.35;;
64186;SDS011;50491;39.484;-8.540;2023-03-21T10:22:39;1.40;;;1.30;;
64186;SDS011;50491;39.484;-8.540;2023-03-21T10:24:40;1.20;;;1.10;;
64186;SDS011;50491;39.484;-8.540;2023-03-21T10:30:27;2.05;;;0.95;;
64186;SDS011;50491;39.484;-8.540;2023-03-21T10:32:51;2.00;;;1.15;;
64186;SDS011;50491;39.484;-8.540;2023-03-21T10:34:54;1.77;;;1.10;;
64186;SDS011;50491;39.484;-8.540;2023-03-21T10:36:57;0.98;;;0.88;;
64186;SDS011;50491;39.484;-8.540;2023-03-21T10:39:02;1.52;;;1.10;;
64186;SDS011;50491;39.484;-8.540;2023-03-21T10:41:08;1.05;;;0.82;;
64186;SDS011;50491;39.484;-8.540;2023-03-21T10:45:35;2.25;;;1.10;;
64186;SDS011;50491;39.484;-8.540;2023-03-21T10:47:38;2.88;;;1.10;;
64186;SDS011;50491;39.484;-8.540;2023-03-21T10:49:39;1.40;;;1.08;;
64186;SDS011;50491;39.484;-8.540;2023-03-21T10:52:00;1.73;;;1.20;;
64186;SDS011;50491;39.484;-8.540;2023-03-21T10:54:24;0.98;;;0.63;;
64186;SDS011;50491;39.484;-8.540;2023-03-21T10:56:56;2.40;;;0.70;;
64186;SDS011;50491;39.484;-8.540;2023-03-21T10:59:00;0.55;;;0.50;;
64186;SDS011;50491;39.484;-8.540;2023-03-21T11:01:02;0.57;;;0.50;;
64186;SDS011;50491;39.484;-8.540;2023-03-21T11:03:04;1.23;;;0.55;;
64186;SDS011;50491;39.484;-8.540;2023-03-21T11:05:24;1.30;;;0.60;;
64186;SDS011;50491;39.484;-8.540;2023-03-21T11:07:46;0.40;;;0.30;;
64186;SDS011;50491;39.484;-8.540;2023-03-21T11:09:52;0.40;;;0.40;;
64186;SDS011;50491;39.484;-8.540;2023-03-21T11:12:16;0.40;;;0.40;;
64186;SDS011;50491;39.484;-8.540;2023-03-21T11:14:44;0.38;;;0.28;;
64186;SDS011;50491;39.484;-8.540;2023-03-21T11:19:34;0.20;;;0.10;;
64186;SDS011;50491;39.484;-8.540;2023-03-21T11:21:36;0.20;;;0.20;;
64186;SDS011;50491;39.484;-8.540;2023-03-21T11:23:56;0.43;;;0.32;;
64186;SDS011;50491;39.484;-8.540;2023-03-21T11:25:58;1.70;;;0.20;;
64186;SDS011;50491;39.484;-8.540;2023-03-21T11:28:07;0.40;;;0.20;;
64186;SDS011;50491;39.484;-8.540;2023-03-21T11:30:18;0.50;;;0.30;;
64186;SDS011;50491;39.484;-8.540;2023-03-21T11:32:22;0.35;;;0.20;;
64186;SDS011;50491;39.484;-8.540;2023-03-21T11:34:45;1.33;;;0.50;;
64186;SDS011;50491;39.484;-8.540;2023-03-21T11:37:19;0.53;;;0.20;;
64186;SDS011;50491;39.484;-8.540;2023-03-21T11:39:36;0.20;;;0.20;;
64186;SDS011;50491;39.484;-8.540;2023-03-21T11:41:46;0.20;;;0.15;;
64186;SDS011;50491;39.484;-8.540;2023-03-21T11:43:50;0.65;;;0.38;;
64186;SDS011;50491;39.484;-8.540;2023-03-21T11:45:59;0.38;;;0.20;;
64186;SDS011;50491;39.484;-8.540;2023-03-21T11:48:10;0.63;;;0.32;;
64186;SDS011;50491;39.484;-8.540;2023-03-21T11:50:33;1.48;;;0.40;;
64186;SDS011;50491;39.484;-8.540;2023-03-21T11:55:53;0.88;;;0.40;;
64186;SDS011;50491;39.484;-8.540;2023-03-21T12:00:18;1.92;;;0.35;;
64186;SDS011;50491;39.484;-8.540;2023-03-21T12:15:56;0.43;;;0.20;;
64186;SDS011;50491;39.484;-8.540;2023-03-21T12:20:25;1.10;;;0.20;;
64186;SDS011;50491;39.484;-8.540;2023-03-21T12:24:49;1.98;;;0.35;;
64186;SDS011;50491;39.484;-8.540;2023-03-21T12:27:07;1.55;;;0.43;;
64186;SDS011;50491;39.484;-8.540;2023-03-21T12:29:39;0.93;;;0.30;;
64186;SDS011;50491;39.484;-8.540;2023-03-21T12:39:36;0.20;;;0.10;;
64186;SDS011;50491;39.484;-8.540;2023-03-21T12:41:47;0.20;;;0.10;;
64186;SDS011;50491;39.484;-8.540;2023-03-21T12:44:23;0.20;;;0.20;;
64186;SDS011;50491;39.484;-8.540;2023-03-21T12:46:31;0.20;;;0.20;;
64186;SDS011;50491;39.484;-8.540;2023-03-21T12:50:43;3.95;;;0.30;;
64186;SDS011;50491;39.484;-8.540;2023-03-21T12:52:46;0.88;;;0.45;;
64186;SDS011;50491;39.484;-8.540;2023-03-21T12:55:12;1.42;;;0.38;;
64186;SDS011;50491;39.484;-8.540;2023-03-21T12:57:40;0.20;;;0.20;;
64186;SDS011;50491;39.484;-8.540;2023-03-21T12:59:49;1.05;;;0.35;;
64186;SDS011;50491;39.484;-8.540;2023-03-21T13:01:59;0.20;;;0.10;;
64186;SDS011;50491;39.484;-8.540;2023-03-21T13:06:45;2.30;;;0.30;;
64186;SDS011;50491;39.484;-8.540;2023-03-21T13:09:16;0.75;;;0.30;;
64186;SDS011;50491;39.484;-8.540;2023-03-21T13:11:31;0.70;;;0.30;;
64186;SDS011;50491;39.484;-8.540;2023-03-21T13:19:54;1.85;;;0.40;;
64186;SDS011;50491;39.484;-8.540;2023-03-21T13:24:37;1.60;;;0.20;;
64186;SDS011;50491;39.484;-8.540;2023-03-21T13:27:01;1.77;;;0.20;;
64186;SDS011;50491;39.484;-8.540;2023-03-21T13:31:47;0.38;;;0.15;;
64186;SDS011;50491;39.484;-8.540;2023-03-21T13:33:57;1.20;;;0.38;;
64186;SDS011;50491;39.484;-8.540;2023-03-21T13:35:59;0.68;;;0.30;;
64186;SDS011;50491;39.484;-8.540;2023-03-21T13:38:05;0.40;;;0.20;;
64186;SDS011;50491;39.484;-8.540;2023-03-21T13:40:36;0.20;;;0.20;;
64186;SDS011;50491;39.484;-8.540;2023-03-21T13:42:44;1.00;;;0.20;;
64186;SDS011;50491;39.484;-8.540;2023-03-21T13:44:54;1.38;;;0.20;;
64186;SDS011;50491;39.484;-8.540;2023-03-21T13:47:23;0.22;;;0.20;;
64186;SDS011;50491;39.484;-8.540;2023-03-21T13:49:37;0.55;;;0.20;;
64186;SDS011;50491;39.484;-8.540;2023-03-21T13:55:00;1.52;;;0.20;;
64186;SDS011;50491;39.484;-8.540;2023-03-21T13:59:45;0.77;;;0.28;;
64186;SDS011;50491;39.484;-8.540;2023-03-21T14:02:23;0.77;;;0.10;;
64186;SDS011;50491;39.484;-8.540;2023-03-21T14:04:28;0.30;;;0.10;;
64186;SDS011;50491;39.484;-8.540;2023-03-21T14:06:36;0.10;;;0.10;;
64186;SDS011;50491;39.484;-8.540;2023-03-21T14:09:00;0.25;;;0.25;;
64186;SDS011;50491;39.484;-8.540;2023-03-21T14:11:06;1.38;;;0.40;;
64186;SDS011;50491;39.484;-8.540;2023-03-21T14:13:33;0.20;;;0.20;;
64186;SDS011;50491;39.484;-8.540;2023-03-21T14:15:42;0.32;;;0.20;;
64186;SDS011;50491;39.484;-8.540;2023-03-21T14:17:50;3.17;;;0.40;;
64186;SDS011;50491;39.484;-8.540;2023-03-21T14:20:25;0.98;;;0.30;;
64186;SDS011;50491;39.484;-8.540;2023-03-21T14:22:28;1.00;;;0.43;;
64186;SDS011;50491;39.484;-8.540;2023-03-21T14:24:29;4.03;;;0.70;;
64186;SDS011;50491;39.484;-8.540;2023-03-21T14:26:49;1.17;;;0.47;;
64186;SDS011;50491;39.484;-8.540;2023-03-21T14:28:51;2.97;;;0.40;;
64186;SDS011;50491;39.484;-8.540;2023-03-21T14:30:56;0.95;;;0.50;;
64186;SDS011;50491;39.484;-8.540;2023-03-21T14:33:01;0.40;;;0.20;;
64186;SDS011;50491;39.484;-8.540;2023-03-21T14:35:02;1.02;;;0.43;;
64186;SDS011;50491;39.484;-8.540;2023-03-21T14:37:05;0.75;;;0.30;;
64186;SDS011;50491;39.484;-8.540;2023-03-21T14:39:19;1.05;;;0.50;;
64186;SDS011;50491;39.484;-8.540;2023-03-21T14:41:45;0.85;;;0.40;;
64186;SDS011;50491;39.484;-8.540;2023-03-21T14:44:22;0.68;;;0.32;;
64186;SDS011;50491;39.484;-8.540;2023-03-21T14:46:22;2.00;;;0.40;;
64186;SDS011;50491;39.484;-8.540;2023-03-21T14:48:33;0.55;;;0.47;;
64186;SDS011;50491;39.484;-8.540;2023-03-21T14:50:56;0.77;;;0.40;;
64186;SDS011;50491;39.484;-8.540;2023-03-21T14:53:00;0.77;;;0.43;;
64186;SDS011;50491;39.484;-8.540;2023-03-21T14:55:04;0.52;;;0.38;;
64186;SDS011;50491;39.484;-8.540;2023-03-21T14:57:14;1.02;;;0.47;;
64186;SDS011;50491;39.484;-8.540;2023-03-21T14:59:21;0.75;;;0.30;;
64186;SDS011;50491;39.484;-8.540;2023-03-21T15:01:41;1.17;;;0.50;;
64186;SDS011;50491;39.484;-8.540;2023-03-21T15:04:04;0.95;;;0.50;;
64186;SDS011;50491;39.484;-8.540;2023-03-21T15:06:24;2.72;;;0.73;;
64186;SDS011;50491;39.484;-8.540;2023-03-21T15:08:26;1.38;;;0.60;;
64186;SDS011;50491;39.484;-8.540;2023-03-21T15:10:53;0.85;;;0.70;;
64186;SDS011;50491;39.484;-8.540;2023-03-21T15:13:17;2.88;;;0.90;;
64186;SDS011;50491;39.484;-8.540;2023-03-21T15:15:19;0.85;;;0.73;;
64186;SDS011;50491;39.484;-8.540;2023-03-21T15:17:40;0.90;;;0.70;;
64186;SDS011;50491;39.484;-8.540;2023-03-21T15:19:41;4.15;;;0.98;;
64186;SDS011;50491;39.484;-8.540;2023-03-21T15:21:44;2.80;;;1.15;;
64186;SDS011;50491;39.484;-8.540;2023-03-21T15:24:11;1.00;;;0.75;;
64186;SDS011;50491;39.484;-8.540;2023-03-21T15:26:23;4.20;;;1.10;;
64186;SDS011;50491;39.484;-8.540;2023-03-21T15:28:25;1.98;;;0.70;;
64186;SDS011;50491;39.484;-8.540;2023-03-21T15:30:26;2.30;;;0.75;;
64186;SDS011;50491;39.484;-8.540;2023-03-21T15:32:28;2.33;;;0.73;;
64186;SDS011;50491;39.484;-8.540;2023-03-21T15:34:29;4.10;;;0.80;;
64186;SDS011;50491;39.484;-8.540;2023-03-21T15:36:32;4.63;;;1.00;;
64186;SDS011;50491;39.484;-8.540;2023-03-21T15:38:36;2.38;;;1.40;;
64186;SDS011;50491;39.484;-8.540;2023-03-21T15:40:44;1.17;;;0.82;;
64186;SDS011;50491;39.484;-8.540;2023-03-21T15:42:44;4.32;;;0.82;;
64186;SDS011;50491;39.484;-8.540;2023-03-21T15:44:46;2.38;;;0.60;;
64186;SDS011;50491;39.484;-8.540;2023-03-21T15:47:09;2.53;;;0.82;;
64186;SDS011;50491;39.484;-8.540;2023-03-21T15:51:19;2.38;;;0.57;;
64186;SDS011;50491;39.484;-8.540;2023-03-21T15:53:21;1.50;;;0.50;;
64186;SDS011;50491;39.484;-8.540;2023-03-21T15:55:23;2.28;;;0.75;;
64186;SDS011;50491;39.484;-8.540;2023-03-21T15:57:30;3.05;;;0.93;;
64186;SDS011;50491;39.484;-8.540;2023-03-21T16:01:57;2.47;;;1.00;;
64186;SDS011;50491;39.484;-8.540;2023-03-21T16:06:21;6.20;;;0.82;;
64186;SDS011;50491;39.484;-8.540;2023-03-21T16:08:25;3.13;;;0.88;;
64186;SDS011;50491;39.484;-8.540;2023-03-21T16:10:45;1.25;;;0.55;;
64186;SDS011;50491;39.484;-8.540;2023-03-21T16:15:10;1.05;;;0.73;;
64186;SDS011;50491;39.484;-8.540;2023-03-21T16:17:53;1.02;;;0.60;;
64186;SDS011;50491;39.484;-8.540;2023-03-21T16:19:38;6.43;;;0.75;;
64186;SDS011;50491;39.484;-8.540;2023-03-21T16:21:41;0.90;;;0.55;;
64186;SDS011;50491;39.484;-8.540;2023-03-21T16:27:11;2.13;;;0.50;;
64186;SDS011;50491;39.484;-8.540;2023-03-21T16:29:13;2.63;;;1.15;;
64186;SDS011;50491;39.484;-8.540;2023-03-21T16:31:35;2.45;;;0.93;;
64186;SDS011;50491;39.484;-8.540;2023-03-21T16:33:36;2.03;;;0.85;;
64186;SDS011;50491;39.484;-8.540;2023-03-21T16:35:38;6.85;;;1.30;;
64186;SDS011;50491;39.484;-8.540;2023-03-21T16:37:39;2.40;;;0.80;;
64186;SDS011;50491;39.484;-8.540;2023-03-21T16:39:59;1.65;;;0.80;;
64186;SDS011;50491;39.484;-8.540;2023-03-21T16:42:00;1.83;;;0.75;;
64186;SDS011;50491;39.484;-8.540;2023-03-21T16:44:01;1.98;;;0.70;;
64186;SDS011;50491;39.484;-8.540;2023-03-21T16:46:02;1.83;;;0.57;;
64186;SDS011;50491;39.484;-8.540;2023-03-21T16:48:02;2.72;;;0.50;;
64186;SDS011;50491;39.484;-8.540;2023-03-21T16:50:17;2.47;;;1.08;;
64186;SDS011;50491;39.484;-8.540;2023-03-21T16:52:21;0.90;;;0.55;;
64186;SDS011;50491;39.484;-8.540;2023-03-21T16:54:21;2.45;;;0.50;;
64186;SDS011;50491;39.484;-8.540;2023-03-21T16:56:26;0.77;;;0.50;;
64186;SDS011;50491;39.484;-8.540;2023-03-21T16:58:48;2.78;;;1.00;;
64186;SDS011;50491;39.484;-8.540;2023-03-21T17:01:11;1.77;;;0.50;;
64186;SDS011;50491;39.484;-8.540;2023-03-21T17:03:18;0.85;;;0.50;;
64186;SDS011;50491;39.484;-8.540;2023-03-21T17:05:19;1.38;;;0.50;;